sensor_id;sensor_type;location;lat;lon;timestamp;P1;durP1;ratioP1;P2;durP2;ratioP2
7699;SDS011;3892;47.794;19.126;2022-08-01T00:02:06;7.23;;;2.40;;
7699;SDS011;3892;47.794;19.126;2022-08-01T00:04:33;3.87;;;2.17;;
7699;SDS011;3892;47.794;19.126;2022-08-01T00:07:00;3.97;;;2.20;;
7699;SDS011;3892;47.794;19.126;2022-08-01T00:09:27;2.90;;;2.27;;
7699;SDS011;3892;47.794;19.126;2022-08-01T00:11:53;3.83;;;2.50;;
7699;SDS011;3892;47.794;19.126;2022-08-01T00:14:22;4.97;;;3.43;;
7699;SDS011;3892;47.794;19.126;2022-08-01T00:16:49;4.43;;;2.73;;
7699;SDS011;3892;47.794;19.126;2022-08-01T00:19:15;5.10;;;3.10;;
7699;SDS011;3892;47.794;19.126;2022-08-01T00:21:42;3.57;;;3.10;;
7699;SDS011;3892;47.794;19.126;2022-08-01T00:24:09;3.47;;;2.63;;
7699;SDS011;3892;47.794;19.126;2022-08-01T00:26:36;3.47;;;2.33;;
7699;SDS011;3892;47.794;19.126;2022-08-01T00:29:03;3.70;;;2.50;;
7699;SDS011;3892;47.794;19.126;2022-08-01T00:31:31;5.40;;;3.07;;
7699;SDS011;3892;47.794;19.126;2022-08-01T00:33:58;4.27;;;2.60;;
7699;SDS011;3892;47.794;19.126;2022-08-01T00:36:25;3.37;;;2.40;;
7699;SDS011;3892;47.794;19.126;2022-08-01T00:38:52;5.03;;;2.97;;
7699;SDS011;3892;47.794;19.126;2022-08-01T00:41:19;3.87;;;2.60;;
7699;SDS011;3892;47.794;19.126;2022-08-01T00:43:46;10.10;;;3.07;;
7699;SDS011;3892;47.794;19.126;2022-08-01T00:46:12;3.47;;;2.53;;
7699;SDS011;3892;47.794;19.126;2022-08-01T00:48:41;2.27;;;2.03;;
7699;SDS011;3892;47.794;19.126;2022-08-01T00:51:08;5.93;;;2.90;;
7699;SDS011;3892;47.794;19.126;2022-08-01T00:53:35;3.70;;;2.80;;
7699;SDS011;3892;47.794;19.126;2022-08-01T00:56:02;2.83;;;2.43;;
7699;SDS011;3892;47.794;19.126;2022-08-01T00:58:29;2.50;;;2.30;;
7699;SDS011;3892;47.794;19.126;2022-08-01T01:00:57;3.03;;;2.33;;
7699;SDS011;3892;47.794;19.126;2022-08-01T01:03:24;3.00;;;2.40;;
7699;SDS011;3892;47.794;19.126;2022-08-01T01:05:54;2.30;;;2.10;;
7699;SDS011;3892;47.794;19.126;2022-08-01T01:08:30;2.33;;;2.13;;
7699;SDS011;3892;47.794;19.126;2022-08-01T01:11:03;4.73;;;2.23;;
7699;SDS011;3892;47.794;19.126;2022-08-01T01:13:37;2.40;;;2.20;;
7699;SDS011;3892;47.794;19.126;2022-08-01T01:16:10;2.73;;;2.50;;
7699;SDS011;3892;47.794;19.126;2022-08-01T01:18:41;3.50;;;2.00;;
7699;SDS011;3892;47.794;19.126;2022-08-01T01:23:56;5.70;;;2.30;;
7699;SDS011;3892;47.794;19.126;2022-08-01T01:26:31;7.03;;;2.60;;
7699;SDS011;3892;47.794;19.126;2022-08-01T01:29:09;6.23;;;3.60;;
7699;SDS011;3892;47.794;19.126;2022-08-01T01:31:42;6.57;;;3.23;;
7699;SDS011;3892;47.794;19.126;2022-08-01T01:34:12;5.67;;;2.83;;
7699;SDS011;3892;47.794;19.126;2022-08-01T01:36:41;3.43;;;2.50;;
7699;SDS011;3892;47.794;19.126;2022-08-01T01:39:10;3.53;;;2.53;;
7699;SDS011;3892;47.794;19.126;2022-08-01T01:41:39;5.23;;;3.53;;
7699;SDS011;3892;47.794;19.126;2022-08-01T01:44:09;7.63;;;3.63;;
7699;SDS011;3892;47.794;19.126;2022-08-01T01:46:38;5.43;;;2.27;;
7699;SDS011;3892;47.794;19.126;2022-08-01T01:49:06;3.83;;;3.00;;
7699;SDS011;3892;47.794;19.126;2022-08-01T01:51:35;6.20;;;3.33;;
7699;SDS011;3892;47.794;19.126;2022-08-01T01:54:05;3.90;;;2.50;;
7699;SDS011;3892;47.794;19.126;2022-08-01T01:56:34;6.53;;;3.37;;
7699;SDS011;3892;47.794;19.126;2022-08-01T01:59:15;3.47;;;2.20;;
7699;SDS011;3892;47.794;19.126;2022-08-01T02:01:46;4.10;;;2.87;;
7699;SDS011;3892;47.794;19.126;2022-08-01T02:04:15;2.37;;;2.17;;
7699;SDS011;3892;47.794;19.126;2022-08-01T02:06:43;4.17;;;3.00;;
7699;SDS011;3892;47.794;19.126;2022-08-01T02:09:12;3.90;;;2.93;;
7699;SDS011;3892;47.794;19.126;2022-08-01T02:11:42;5.70;;;2.97;;
7699;SDS011;3892;47.794;19.126;2022-08-01T02:14:11;5.13;;;3.00;;
7699;SDS011;3892;47.794;19.126;2022-08-01T02:16:41;4.00;;;2.47;;
7699;SDS011;3892;47.794;19.126;2022-08-01T02:19:11;3.07;;;2.47;;
7699;SDS011;3892;47.794;19.126;2022-08-01T02:21:40;4.63;;;2.93;;
7699;SDS011;3892;47.794;19.126;2022-08-01T02:24:12;3.60;;;3.03;;
7699;SDS011;3892;47.794;19.126;2022-08-01T02:26:42;3.73;;;2.67;;
7699;SDS011;3892;47.794;19.126;2022-08-01T02:29:15;1.93;;;1.83;;
7699;SDS011;3892;47.794;19.126;2022-08-01T02:31:48;2.80;;;2.57;;
7699;SDS011;3892;47.794;19.126;2022-08-01T02:34:19;4.33;;;2.50;;
7699;SDS011;3892;47.794;19.126;2022-08-01T02:36:48;2.57;;;2.27;;
7699;SDS011;3892;47.794;19.126;2022-08-01T02:39:18;5.47;;;3.67;;
7699;SDS011;3892;47.794;19.126;2022-08-01T02:41:48;4.80;;;3.23;;
7699;SDS011;3892;47.794;19.126;2022-08-01T02:44:23;5.00;;;2.70;;
7699;SDS011;3892;47.794;19.126;2022-08-01T02:46:56;3.37;;;2.57;;
7699;SDS011;3892;47.794;19.126;2022-08-01T02:49:27;5.53;;;3.20;;
7699;SDS011;3892;47.794;19.126;2022-08-01T02:51:59;3.27;;;2.73;;
7699;SDS011;3892;47.794;19.126;2022-08-01T02:54:27;2.70;;;2.33;;
7699;SDS011;3892;47.794;19.126;2022-08-01T02:56:57;4.07;;;2.50;;
7699;SDS011;3892;47.794;19.126;2022-08-01T02:59:25;3.07;;;2.40;;
7699;SDS011;3892;47.794;19.126;2022-08-01T03:01:56;3.80;;;2.37;;
7699;SDS011;3892;47.794;19.126;2022-08-01T03:04:26;4.53;;;2.53;;
7699;SDS011;3892;47.794;19.126;2022-08-01T03:06:54;2.30;;;2.10;;
7699;SDS011;3892;47.794;19.126;2022-08-01T03:09:23;4.03;;;3.10;;
7699;SDS011;3892;47.794;19.126;2022-08-01T03:11:52;7.70;;;3.20;;
7699;SDS011;3892;47.794;19.126;2022-08-01T03:14:23;4.57;;;2.57;;
7699;SDS011;3892;47.794;19.126;2022-08-01T03:16:51;2.60;;;2.40;;
7699;SDS011;3892;47.794;19.126;2022-08-01T03:19:20;3.70;;;2.70;;
7699;SDS011;3892;47.794;19.126;2022-08-01T03:21:50;2.50;;;2.30;;
7699;SDS011;3892;47.794;19.126;2022-08-01T03:24:18;3.80;;;2.40;;
7699;SDS011;3892;47.794;19.126;2022-08-01T03:26:45;4.30;;;2.93;;
7699;SDS011;3892;47.794;19.126;2022-08-01T03:29:14;3.37;;;2.47;;
7699;SDS011;3892;47.794;19.126;2022-08-01T03:31:43;5.13;;;3.00;;
7699;SDS011;3892;47.794;19.126;2022-08-01T03:34:12;4.43;;;2.80;;
7699;SDS011;3892;47.794;19.126;2022-08-01T03:36:42;4.97;;;2.67;;
7699;SDS011;3892;47.794;19.126;2022-08-01T03:39:12;4.77;;;2.37;;
7699;SDS011;3892;47.794;19.126;2022-08-01T03:41:41;4.47;;;2.40;;
7699;SDS011;3892;47.794;19.126;2022-08-01T03:44:13;3.53;;;2.40;;
7699;SDS011;3892;47.794;19.126;2022-08-01T03:46:42;3.77;;;2.20;;
7699;SDS011;3892;47.794;19.126;2022-08-01T03:49:14;7.60;;;2.53;;
7699;SDS011;3892;47.794;19.126;2022-08-01T03:51:47;4.37;;;2.50;;
7699;SDS011;3892;47.794;19.126;2022-08-01T03:54:16;6.17;;;4.40;;
7699;SDS011;3892;47.794;19.126;2022-08-01T03:56:47;13.23;;;7.63;;
7699;SDS011;3892;47.794;19.126;2022-08-01T03:59:16;5.73;;;4.70;;
7699;SDS011;3892;47.794;19.126;2022-08-01T04:01:45;6.43;;;3.97;;
7699;SDS011;3892;47.794;19.126;2022-08-01T04:04:12;5.40;;;3.67;;
7699;SDS011;3892;47.794;19.126;2022-08-01T04:06:40;7.10;;;2.93;;
7699;SDS011;3892;47.794;19.126;2022-08-01T04:09:10;5.20;;;3.27;;
7699;SDS011;3892;47.794;19.126;2022-08-01T04:11:38;4.27;;;2.30;;
7699;SDS011;3892;47.794;19.126;2022-08-01T04:14:05;4.87;;;2.80;;
7699;SDS011;3892;47.794;19.126;2022-08-01T04:16:31;5.13;;;2.07;;
7699;SDS011;3892;47.794;19.126;2022-08-01T04:18:59;3.53;;;2.40;;
7699;SDS011;3892;47.794;19.126;2022-08-01T04:21:26;2.10;;;1.90;;
7699;SDS011;3892;47.794;19.126;2022-08-01T04:23:58;2.40;;;2.00;;
7699;SDS011;3892;47.794;19.126;2022-08-01T04:26:29;9.97;;;2.30;;
7699;SDS011;3892;47.794;19.126;2022-08-01T04:28:58;2.83;;;2.37;;
7699;SDS011;3892;47.794;19.126;2022-08-01T04:31:27;2.80;;;2.03;;
7699;SDS011;3892;47.794;19.126;2022-08-01T04:33:56;2.40;;;2.17;;
7699;SDS011;3892;47.794;19.126;2022-08-01T04:36:25;2.93;;;2.00;;
7699;SDS011;3892;47.794;19.126;2022-08-01T04:38:56;4.90;;;2.23;;
7699;SDS011;3892;47.794;19.126;2022-08-01T04:41:26;4.27;;;2.40;;
7699;SDS011;3892;47.794;19.126;2022-08-01T04:43:55;4.37;;;2.27;;
7699;SDS011;3892;47.794;19.126;2022-08-01T04:46:24;2.77;;;2.40;;
7699;SDS011;3892;47.794;19.126;2022-08-01T04:48:51;2.53;;;2.20;;
7699;SDS011;3892;47.794;19.126;2022-08-01T04:51:20;2.30;;;2.03;;
7699;SDS011;3892;47.794;19.126;2022-08-01T04:53:48;2.30;;;2.10;;
7699;SDS011;3892;47.794;19.126;2022-08-01T04:56:16;3.57;;;1.97;;
7699;SDS011;3892;47.794;19.126;2022-08-01T04:58:43;11.20;;;2.40;;
7699;SDS011;3892;47.794;19.126;2022-08-01T05:01:12;2.60;;;2.40;;
7699;SDS011;3892;47.794;19.126;2022-08-01T05:03:39;6.07;;;2.20;;
7699;SDS011;3892;47.794;19.126;2022-08-01T05:06:06;3.00;;;2.47;;
7699;SDS011;3892;47.794;19.126;2022-08-01T05:08:33;3.07;;;2.30;;
7699;SDS011;3892;47.794;19.126;2022-08-01T05:11:01;3.33;;;2.70;;
7699;SDS011;3892;47.794;19.126;2022-08-01T05:13:28;2.27;;;2.07;;
7699;SDS011;3892;47.794;19.126;2022-08-01T05:15:55;2.20;;;2.03;;
7699;SDS011;3892;47.794;19.126;2022-08-01T05:18:23;2.30;;;2.17;;
7699;SDS011;3892;47.794;19.126;2022-08-01T05:20:51;2.17;;;2.00;;
7699;SDS011;3892;47.794;19.126;2022-08-01T05:23:18;2.43;;;2.23;;
7699;SDS011;3892;47.794;19.126;2022-08-01T05:25:45;3.30;;;2.37;;
7699;SDS011;3892;47.794;19.126;2022-08-01T05:28:14;2.23;;;2.03;;
7699;SDS011;3892;47.794;19.126;2022-08-01T05:30:40;2.13;;;2.03;;
7699;SDS011;3892;47.794;19.126;2022-08-01T05:33:07;2.73;;;2.37;;
7699;SDS011;3892;47.794;19.126;2022-08-01T05:35:36;2.67;;;2.23;;
7699;SDS011;3892;47.794;19.126;2022-08-01T05:38:03;4.03;;;2.20;;
7699;SDS011;3892;47.794;19.126;2022-08-01T05:40:30;2.87;;;2.13;;
7699;SDS011;3892;47.794;19.126;2022-08-01T05:42:56;2.53;;;2.33;;
7699;SDS011;3892;47.794;19.126;2022-08-01T05:45:23;2.57;;;1.67;;
7699;SDS011;3892;47.794;19.126;2022-08-01T05:47:50;2.30;;;2.10;;
7699;SDS011;3892;47.794;19.126;2022-08-01T05:50:17;2.07;;;1.90;;
7699;SDS011;3892;47.794;19.126;2022-08-01T05:52:45;2.97;;;2.40;;
7699;SDS011;3892;47.794;19.126;2022-08-01T05:55:12;2.43;;;2.23;;
7699;SDS011;3892;47.794;19.126;2022-08-01T05:57:39;3.20;;;2.23;;
7699;SDS011;3892;47.794;19.126;2022-08-01T06:00:07;3.80;;;2.20;;
7699;SDS011;3892;47.794;19.126;2022-08-01T06:02:39;4.07;;;2.10;;
7699;SDS011;3892;47.794;19.126;2022-08-01T06:05:08;4.47;;;2.00;;
7699;SDS011;3892;47.794;19.126;2022-08-01T06:07:35;3.73;;;2.23;;
7699;SDS011;3892;47.794;19.126;2022-08-01T06:10:05;3.40;;;2.20;;
7699;SDS011;3892;47.794;19.126;2022-08-01T06:12:33;2.07;;;1.97;;
7699;SDS011;3892;47.794;19.126;2022-08-01T06:15:00;3.00;;;2.33;;
7699;SDS011;3892;47.794;19.126;2022-08-01T06:17:27;2.67;;;1.87;;
7699;SDS011;3892;47.794;19.126;2022-08-01T06:19:54;4.53;;;2.00;;
7699;SDS011;3892;47.794;19.126;2022-08-01T06:22:21;3.07;;;2.10;;
7699;SDS011;3892;47.794;19.126;2022-08-01T06:24:48;2.23;;;2.10;;
7699;SDS011;3892;47.794;19.126;2022-08-01T06:27:16;2.03;;;1.80;;
7699;SDS011;3892;47.794;19.126;2022-08-01T06:29:43;4.93;;;2.30;;
7699;SDS011;3892;47.794;19.126;2022-08-01T06:32:10;2.70;;;2.17;;
7699;SDS011;3892;47.794;19.126;2022-08-01T06:34:37;3.10;;;2.47;;
7699;SDS011;3892;47.794;19.126;2022-08-01T06:37:04;1.97;;;1.87;;
7699;SDS011;3892;47.794;19.126;2022-08-01T06:39:31;2.10;;;1.90;;
7699;SDS011;3892;47.794;19.126;2022-08-01T06:41:58;2.53;;;2.20;;
7699;SDS011;3892;47.794;19.126;2022-08-01T06:44:26;2.60;;;2.40;;
7699;SDS011;3892;47.794;19.126;2022-08-01T06:46:53;2.03;;;1.93;;
7699;SDS011;3892;47.794;19.126;2022-08-01T06:49:20;2.47;;;1.93;;
7699;SDS011;3892;47.794;19.126;2022-08-01T06:51:47;1.80;;;1.70;;
7699;SDS011;3892;47.794;19.126;2022-08-01T06:54:13;3.10;;;2.13;;
7699;SDS011;3892;47.794;19.126;2022-08-01T06:56:41;1.87;;;1.77;;
7699;SDS011;3892;47.794;19.126;2022-08-01T06:59:08;1.80;;;1.70;;
7699;SDS011;3892;47.794;19.126;2022-08-01T07:01:36;1.87;;;1.77;;
7699;SDS011;3892;47.794;19.126;2022-08-01T07:04:03;4.67;;;2.63;;
7699;SDS011;3892;47.794;19.126;2022-08-01T07:06:30;2.80;;;2.60;;
7699;SDS011;3892;47.794;19.126;2022-08-01T07:08:57;2.27;;;2.10;;
7699;SDS011;3892;47.794;19.126;2022-08-01T07:11:26;3.83;;;2.10;;
7699;SDS011;3892;47.794;19.126;2022-08-01T07:13:52;2.00;;;1.90;;
7699;SDS011;3892;47.794;19.126;2022-08-01T07:16:19;2.47;;;2.03;;
7699;SDS011;3892;47.794;19.126;2022-08-01T07:18:48;5.80;;;2.23;;
7699;SDS011;3892;47.794;19.126;2022-08-01T07:21:15;3.97;;;2.10;;
7699;SDS011;3892;47.794;19.126;2022-08-01T07:23:42;2.40;;;2.20;;
7699;SDS011;3892;47.794;19.126;2022-08-01T07:26:09;2.40;;;2.20;;
7699;SDS011;3892;47.794;19.126;2022-08-01T07:28:36;2.83;;;2.03;;
7699;SDS011;3892;47.794;19.126;2022-08-01T07:31:02;2.93;;;2.03;;
7699;SDS011;3892;47.794;19.126;2022-08-01T07:33:30;4.33;;;2.00;;
7699;SDS011;3892;47.794;19.126;2022-08-01T07:35:58;2.17;;;1.97;;
7699;SDS011;3892;47.794;19.126;2022-08-01T07:38:25;2.23;;;2.07;;
7699;SDS011;3892;47.794;19.126;2022-08-01T07:40:52;3.30;;;2.50;;
7699;SDS011;3892;47.794;19.126;2022-08-01T07:43:20;1.67;;;1.57;;
7699;SDS011;3892;47.794;19.126;2022-08-01T07:45:47;2.70;;;1.90;;
7699;SDS011;3892;47.794;19.126;2022-08-01T07:48:14;2.93;;;2.20;;
7699;SDS011;3892;47.794;19.126;2022-08-01T07:50:40;2.10;;;1.80;;
7699;SDS011;3892;47.794;19.126;2022-08-01T07:53:09;2.57;;;1.63;;
7699;SDS011;3892;47.794;19.126;2022-08-01T07:55:36;1.60;;;1.50;;
7699;SDS011;3892;47.794;19.126;2022-08-01T07:58:03;2.30;;;2.10;;
7699;SDS011;3892;47.794;19.126;2022-08-01T08:00:29;2.10;;;1.83;;
7699;SDS011;3892;47.794;19.126;2022-08-01T08:02:56;2.47;;;2.10;;
7699;SDS011;3892;47.794;19.126;2022-08-01T08:05:24;2.30;;;2.20;;
7699;SDS011;3892;47.794;19.126;2022-08-01T08:07:51;2.10;;;1.90;;
7699;SDS011;3892;47.794;19.126;2022-08-01T08:10:19;2.23;;;1.70;;
7699;SDS011;3892;47.794;19.126;2022-08-01T08:12:46;2.37;;;1.80;;
7699;SDS011;3892;47.794;19.126;2022-08-01T08:15:13;2.57;;;1.70;;
7699;SDS011;3892;47.794;19.126;2022-08-01T08:17:41;2.30;;;1.67;;
7699;SDS011;3892;47.794;19.126;2022-08-01T08:20:08;1.70;;;1.60;;
7699;SDS011;3892;47.794;19.126;2022-08-01T08:22:36;3.13;;;2.60;;
7699;SDS011;3892;47.794;19.126;2022-08-01T08:25:03;3.83;;;2.00;;
7699;SDS011;3892;47.794;19.126;2022-08-01T08:27:33;2.07;;;1.83;;
7699;SDS011;3892;47.794;19.126;2022-08-01T08:30:01;1.63;;;1.53;;
7699;SDS011;3892;47.794;19.126;2022-08-01T08:32:28;3.10;;;1.93;;
7699;SDS011;3892;47.794;19.126;2022-08-01T08:34:56;1.93;;;1.83;;
7699;SDS011;3892;47.794;19.126;2022-08-01T08:37:23;1.67;;;1.57;;
7699;SDS011;3892;47.794;19.126;2022-08-01T08:39:50;2.03;;;1.87;;
7699;SDS011;3892;47.794;19.126;2022-08-01T08:42:17;2.10;;;1.90;;
7699;SDS011;3892;47.794;19.126;2022-08-01T08:44:46;2.00;;;1.90;;
7699;SDS011;3892;47.794;19.126;2022-08-01T08:47:13;2.47;;;2.10;;
7699;SDS011;3892;47.794;19.126;2022-08-01T08:49:41;3.10;;;2.13;;
7699;SDS011;3892;47.794;19.126;2022-08-01T08:52:09;2.43;;;2.17;;
7699;SDS011;3892;47.794;19.126;2022-08-01T08:54:37;2.40;;;1.90;;
7699;SDS011;3892;47.794;19.126;2022-08-01T08:57:06;2.13;;;1.87;;
7699;SDS011;3892;47.794;19.126;2022-08-01T08:59:35;2.50;;;2.07;;
7699;SDS011;3892;47.794;19.126;2022-08-01T09:02:04;2.00;;;1.80;;
7699;SDS011;3892;47.794;19.126;2022-08-01T09:04:34;3.00;;;2.07;;
7699;SDS011;3892;47.794;19.126;2022-08-01T09:07:03;2.20;;;2.00;;
7699;SDS011;3892;47.794;19.126;2022-08-01T09:09:30;2.63;;;2.20;;
7699;SDS011;3892;47.794;19.126;2022-08-01T09:11:57;5.77;;;1.80;;
7699;SDS011;3892;47.794;19.126;2022-08-01T09:14:25;2.60;;;2.07;;
7699;SDS011;3892;47.794;19.126;2022-08-01T09:16:59;2.83;;;1.87;;
7699;SDS011;3892;47.794;19.126;2022-08-01T09:19:35;2.20;;;2.00;;
7699;SDS011;3892;47.794;19.126;2022-08-01T09:22:03;4.90;;;2.00;;
7699;SDS011;3892;47.794;19.126;2022-08-01T09:24:31;4.03;;;2.07;;
7699;SDS011;3892;47.794;19.126;2022-08-01T09:26:59;1.90;;;1.80;;
7699;SDS011;3892;47.794;19.126;2022-08-01T09:29:28;3.10;;;2.43;;
7699;SDS011;3892;47.794;19.126;2022-08-01T09:31:56;1.97;;;1.83;;
7699;SDS011;3892;47.794;19.126;2022-08-01T09:34:25;3.80;;;1.90;;
7699;SDS011;3892;47.794;19.126;2022-08-01T09:36:55;3.60;;;2.53;;
7699;SDS011;3892;47.794;19.126;2022-08-01T09:39:24;2.13;;;1.93;;
7699;SDS011;3892;47.794;19.126;2022-08-01T09:41:52;4.63;;;1.97;;
7699;SDS011;3892;47.794;19.126;2022-08-01T09:44:19;2.30;;;2.10;;
7699;SDS011;3892;47.794;19.126;2022-08-01T09:47:02;3.07;;;1.77;;
7699;SDS011;3892;47.794;19.126;2022-08-01T09:49:30;2.70;;;2.00;;
7699;SDS011;3892;47.794;19.126;2022-08-01T09:52:10;1.90;;;1.80;;
7699;SDS011;3892;47.794;19.126;2022-08-01T09:54:38;2.10;;;1.90;;
7699;SDS011;3892;47.794;19.126;2022-08-01T09:57:09;3.17;;;1.83;;
7699;SDS011;3892;47.794;19.126;2022-08-01T09:59:39;1.90;;;1.70;;
7699;SDS011;3892;47.794;19.126;2022-08-01T10:02:08;2.63;;;1.83;;
7699;SDS011;3892;47.794;19.126;2022-08-01T10:04:45;2.53;;;2.10;;
7699;SDS011;3892;47.794;19.126;2022-08-01T10:07:14;1.80;;;1.70;;
7699;SDS011;3892;47.794;19.126;2022-08-01T10:09:42;1.90;;;1.80;;
7699;SDS011;3892;47.794;19.126;2022-08-01T10:12:10;2.03;;;1.93;;
7699;SDS011;3892;47.794;19.126;2022-08-01T10:14:39;3.50;;;3.17;;
7699;SDS011;3892;47.794;19.126;2022-08-01T10:17:09;4.50;;;2.20;;
7699;SDS011;3892;47.794;19.126;2022-08-01T10:19:39;2.90;;;1.83;;
7699;SDS011;3892;47.794;19.126;2022-08-01T10:22:08;2.27;;;2.03;;
7699;SDS011;3892;47.794;19.126;2022-08-01T10:24:38;2.03;;;1.93;;
7699;SDS011;3892;47.794;19.126;2022-08-01T10:27:06;2.30;;;2.10;;
7699;SDS011;3892;47.794;19.126;2022-08-01T10:29:37;1.63;;;1.53;;
7699;SDS011;3892;47.794;19.126;2022-08-01T10:32:07;2.30;;;2.10;;
7699;SDS011;3892;47.794;19.126;2022-08-01T10:34:36;2.63;;;2.00;;
7699;SDS011;3892;47.794;19.126;2022-08-01T10:37:04;1.70;;;1.60;;
7699;SDS011;3892;47.794;19.126;2022-08-01T10:39:32;2.33;;;2.13;;
7699;SDS011;3892;47.794;19.126;2022-08-01T10:42:01;2.30;;;2.10;;
7699;SDS011;3892;47.794;19.126;2022-08-01T10:44:28;1.83;;;1.73;;
7699;SDS011;3892;47.794;19.126;2022-08-01T10:46:59;4.20;;;2.50;;
7699;SDS011;3892;47.794;19.126;2022-08-01T10:49:30;2.80;;;2.20;;
7699;SDS011;3892;47.794;19.126;2022-08-01T10:52:02;1.87;;;1.77;;
7699;SDS011;3892;47.794;19.126;2022-08-01T10:54:30;2.00;;;1.80;;
7699;SDS011;3892;47.794;19.126;2022-08-01T10:57:07;4.93;;;2.00;;
7699;SDS011;3892;47.794;19.126;2022-08-01T10:59:35;2.03;;;1.83;;
7699;SDS011;3892;47.794;19.126;2022-08-01T11:02:24;3.60;;;2.10;;
7699;SDS011;3892;47.794;19.126;2022-08-01T11:04:54;2.40;;;2.20;;
7699;SDS011;3892;47.794;19.126;2022-08-01T11:07:24;3.93;;;2.10;;
7699;SDS011;3892;47.794;19.126;2022-08-01T11:10:09;2.00;;;1.90;;
7699;SDS011;3892;47.794;19.126;2022-08-01T11:12:46;2.90;;;2.70;;
7699;SDS011;3892;47.794;19.126;2022-08-01T11:15:24;3.00;;;2.47;;
7699;SDS011;3892;47.794;19.126;2022-08-01T11:17:53;6.43;;;2.30;;
7699;SDS011;3892;47.794;19.126;2022-08-01T11:20:21;2.30;;;1.90;;
7699;SDS011;3892;47.794;19.126;2022-08-01T11:26:08;2.50;;;2.27;;
7699;SDS011;3892;47.794;19.126;2022-08-01T11:28:41;2.80;;;2.17;;
7699;SDS011;3892;47.794;19.126;2022-08-01T11:31:26;2.30;;;2.17;;
7699;SDS011;3892;47.794;19.126;2022-08-01T11:33:54;3.13;;;2.90;;
7699;SDS011;3892;47.794;19.126;2022-08-01T11:36:21;2.87;;;2.20;;
7699;SDS011;3892;47.794;19.126;2022-08-01T11:38:49;2.10;;;2.00;;
7699;SDS011;3892;47.794;19.126;2022-08-01T11:41:32;2.13;;;2.00;;
7699;SDS011;3892;47.794;19.126;2022-08-01T11:44:03;2.43;;;2.10;;
7699;SDS011;3892;47.794;19.126;2022-08-01T11:49:25;3.30;;;3.00;;
7699;SDS011;3892;47.794;19.126;2022-08-01T11:52:00;3.63;;;2.47;;
7699;SDS011;3892;47.794;19.126;2022-08-01T11:54:29;2.30;;;2.10;;
7699;SDS011;3892;47.794;19.126;2022-08-01T11:56:57;2.80;;;2.60;;
7699;SDS011;3892;47.794;19.126;2022-08-01T11:59:28;4.47;;;3.90;;
7699;SDS011;3892;47.794;19.126;2022-08-01T12:02:01;2.00;;;1.90;;
7699;SDS011;3892;47.794;19.126;2022-08-01T12:07:17;2.23;;;2.00;;
7699;SDS011;3892;47.794;19.126;2022-08-01T12:09:44;2.70;;;2.30;;
7699;SDS011;3892;47.794;19.126;2022-08-01T12:12:14;2.80;;;2.07;;
7699;SDS011;3892;47.794;19.126;2022-08-01T12:14:44;2.40;;;2.20;;
7699;SDS011;3892;47.794;19.126;2022-08-01T12:17:12;2.03;;;1.93;;
7699;SDS011;3892;47.794;19.126;2022-08-01T12:19:39;2.80;;;2.40;;
7699;SDS011;3892;47.794;19.126;2022-08-01T12:22:07;2.07;;;1.97;;
7699;SDS011;3892;47.794;19.126;2022-08-01T12:24:36;2.17;;;2.07;;
7699;SDS011;3892;47.794;19.126;2022-08-01T12:27:04;1.80;;;1.70;;
7699;SDS011;3892;47.794;19.126;2022-08-01T12:29:33;2.17;;;2.00;;
7699;SDS011;3892;47.794;19.126;2022-08-01T12:32:03;2.00;;;1.80;;
7699;SDS011;3892;47.794;19.126;2022-08-01T12:34:30;1.90;;;1.80;;
7699;SDS011;3892;47.794;19.126;2022-08-01T12:37:00;2.03;;;1.77;;
7699;SDS011;3892;47.794;19.126;2022-08-01T12:39:34;2.17;;;1.77;;
7699;SDS011;3892;47.794;19.126;2022-08-01T12:42:01;2.00;;;1.90;;
7699;SDS011;3892;47.794;19.126;2022-08-01T12:44:32;1.90;;;1.77;;
7699;SDS011;3892;47.794;19.126;2022-08-01T12:47:00;1.77;;;1.67;;
7699;SDS011;3892;47.794;19.126;2022-08-01T12:49:31;2.00;;;1.70;;
7699;SDS011;3892;47.794;19.126;2022-08-01T12:51:58;2.20;;;1.90;;
7699;SDS011;3892;47.794;19.126;2022-08-01T12:54:25;1.95;;;1.80;;
7699;SDS011;3892;47.794;19.126;2022-08-01T12:56:52;1.85;;;1.75;;
7699;SDS011;3892;47.794;19.126;2022-08-01T12:59:20;2.35;;;1.80;;
7699;SDS011;3892;47.794;19.126;2022-08-01T13:01:49;1.77;;;1.67;;
7699;SDS011;3892;47.794;19.126;2022-08-01T13:04:17;3.92;;;1.83;;
7699;SDS011;3892;47.794;19.126;2022-08-01T13:06:44;2.85;;;2.00;;
7699;SDS011;3892;47.794;19.126;2022-08-01T13:09:11;2.08;;;1.80;;
7699;SDS011;3892;47.794;19.126;2022-08-01T13:11:38;1.60;;;1.50;;
7699;SDS011;3892;47.794;19.126;2022-08-01T13:14:05;2.00;;;1.80;;
7699;SDS011;3892;47.794;19.126;2022-08-01T13:16:33;1.97;;;1.87;;
7699;SDS011;3892;47.794;19.126;2022-08-01T13:19:12;2.97;;;1.70;;
7699;SDS011;3892;47.794;19.126;2022-08-01T13:21:41;1.77;;;1.57;;
7699;SDS011;3892;47.794;19.126;2022-08-01T13:24:24;1.63;;;1.52;;
7699;SDS011;3892;47.794;19.126;2022-08-01T13:26:53;2.25;;;1.77;;
7699;SDS011;3892;47.794;19.126;2022-08-01T13:29:28;1.40;;;1.40;;
7699;SDS011;3892;47.794;19.126;2022-08-01T13:31:57;1.52;;;1.42;;
7699;SDS011;3892;47.794;19.126;2022-08-01T13:34:30;1.55;;;1.50;;
7699;SDS011;3892;47.794;19.126;2022-08-01T13:36:59;1.60;;;1.50;;
7699;SDS011;3892;47.794;19.126;2022-08-01T13:39:27;2.33;;;1.55;;
7699;SDS011;3892;47.794;19.126;2022-08-01T13:42:07;2.58;;;1.60;;
7699;SDS011;3892;47.794;19.126;2022-08-01T13:44:34;1.42;;;1.35;;
7699;SDS011;3892;47.794;19.126;2022-08-01T13:47:02;1.92;;;1.42;;
7699;SDS011;3892;47.794;19.126;2022-08-01T13:49:29;1.60;;;1.50;;
7699;SDS011;3892;47.794;19.126;2022-08-01T13:51:57;1.35;;;1.35;;
7699;SDS011;3892;47.794;19.126;2022-08-01T13:54:25;1.55;;;1.45;;
7699;SDS011;3892;47.794;19.126;2022-08-01T13:56:53;2.33;;;1.50;;
7699;SDS011;3892;47.794;19.126;2022-08-01T13:59:20;4.30;;;1.60;;
7699;SDS011;3892;47.794;19.126;2022-08-01T14:01:47;1.60;;;1.48;;
7699;SDS011;3892;47.794;19.126;2022-08-01T14:04:14;1.70;;;1.60;;
7699;SDS011;3892;47.794;19.126;2022-08-01T14:06:41;2.38;;;1.60;;
7699;SDS011;3892;47.794;19.126;2022-08-01T14:09:10;1.50;;;1.40;;
7699;SDS011;3892;47.794;19.126;2022-08-01T14:11:37;1.40;;;1.30;;
7699;SDS011;3892;47.794;19.126;2022-08-01T14:14:04;1.30;;;1.20;;
7699;SDS011;3892;47.794;19.126;2022-08-01T14:16:31;1.70;;;1.60;;
7699;SDS011;3892;47.794;19.126;2022-08-01T14:18:58;1.70;;;1.60;;
7699;SDS011;3892;47.794;19.126;2022-08-01T14:21:25;1.42;;;1.33;;
7699;SDS011;3892;47.794;19.126;2022-08-01T14:23:52;1.73;;;1.40;;
7699;SDS011;3892;47.794;19.126;2022-08-01T14:26:20;1.48;;;1.38;;
7699;SDS011;3892;47.794;19.126;2022-08-01T14:28:47;1.88;;;1.40;;
7699;SDS011;3892;47.794;19.126;2022-08-01T14:31:14;1.48;;;1.38;;
7699;SDS011;3892;47.794;19.126;2022-08-01T14:33:41;1.70;;;1.60;;
7699;SDS011;3892;47.794;19.126;2022-08-01T14:36:08;2.08;;;1.80;;
7699;SDS011;3892;47.794;19.126;2022-08-01T14:38:34;1.63;;;1.52;;
7699;SDS011;3892;47.794;19.126;2022-08-01T14:41:01;1.40;;;1.30;;
7699;SDS011;3892;47.794;19.126;2022-08-01T14:43:30;1.92;;;1.45;;
7699;SDS011;3892;47.794;19.126;2022-08-01T14:45:57;2.22;;;1.50;;
7699;SDS011;3892;47.794;19.126;2022-08-01T14:48:25;1.60;;;1.50;;
7699;SDS011;3892;47.794;19.126;2022-08-01T14:50:52;2.35;;;1.50;;
7699;SDS011;3892;47.794;19.126;2022-08-01T14:53:19;2.47;;;1.60;;
7699;SDS011;3892;47.794;19.126;2022-08-01T14:55:46;1.60;;;1.50;;
7699;SDS011;3892;47.794;19.126;2022-08-01T14:58:13;1.77;;;1.67;;
7699;SDS011;3892;47.794;19.126;2022-08-01T15:00:41;1.67;;;1.58;;
7699;SDS011;3892;47.794;19.126;2022-08-01T15:03:08;1.50;;;1.40;;
7699;SDS011;3892;47.794;19.126;2022-08-01T15:05:35;1.48;;;1.45;;
7699;SDS011;3892;47.794;19.126;2022-08-01T15:08:02;1.85;;;1.50;;
7699;SDS011;3892;47.794;19.126;2022-08-01T15:10:30;1.70;;;1.60;;
7699;SDS011;3892;47.794;19.126;2022-08-01T15:12:58;1.83;;;1.70;;
7699;SDS011;3892;47.794;19.126;2022-08-01T15:15:26;1.95;;;1.58;;
7699;SDS011;3892;47.794;19.126;2022-08-01T15:17:54;1.38;;;1.38;;
7699;SDS011;3892;47.794;19.126;2022-08-01T15:20:21;1.90;;;1.58;;
7699;SDS011;3892;47.794;19.126;2022-08-01T15:22:49;1.60;;;1.50;;